createdAt,value
2022-09-26T00:01:54.667Z,72.30
2022-09-26T00:04:43.128Z,73.23
2022-09-26T00:07:32.800Z,71.67
2022-09-26T00:10:21.200Z,70.97
2022-09-26T00:13:09.554Z,71.03
2022-09-26T00:15:58.537Z,72.87
2022-09-26T00:18:50.397Z,69.50
2022-09-26T00:21:39.329Z,70.23
2022-09-26T00:24:29.033Z,75.23
2022-09-26T00:27:17.416Z,78.53
2022-09-26T00:30:06.897Z,75.50
2022-09-26T00:32:55.255Z,74.07
2022-09-26T00:35:51.372Z,73.87
2022-09-26T00:38:40.657Z,72.57
2022-09-26T00:41:30.451Z,71.87
2022-09-26T00:44:46.360Z,69.40
2022-09-26T00:47:43.861Z,71.77
2022-09-26T00:50:37.539Z,68.43
2022-09-26T00:53:34.639Z,71.30
2022-09-26T00:56:27.700Z,69.90
2022-09-26T00:59:24.264Z,69.90
2022-09-26T01:02:12.922Z,70.97
2022-09-26T01:05:02.758Z,70.33
2022-09-26T01:07:53.646Z,68.43
2022-09-26T01:10:43.212Z,68.10
2022-09-26T01:13:34.302Z,65.73
2022-09-26T01:16:24.107Z,63.77
2022-09-26T01:19:23.864Z,63.77
2022-09-26T01:22:47.871Z,66.47
2022-09-26T01:25:57.514Z,69.43
2022-09-26T01:29:06.125Z,72.60
2022-09-26T01:32:22.790Z,72.73
2022-09-26T01:35:15.504Z,73.17
2022-09-26T01:38:17.686Z,71.87
2022-09-26T01:41:18.726Z,74.80
2022-09-26T01:44:16.938Z,71.57
2022-09-26T01:47:14.678Z,72.27
2022-09-26T01:50:14.153Z,74.87
2022-09-26T01:53:07.366Z,75.13
2022-09-26T01:56:02.239Z,75.57
2022-09-26T01:58:54.869Z,76.80
2022-09-26T02:01:46.292Z,74.77
2022-09-26T02:04:39.853Z,74.37
2022-09-26T02:07:35.336Z,76.03
2022-09-26T02:10:29.641Z,71.60
2022-09-26T02:13:23.147Z,65.70
2022-09-26T02:16:19.506Z,65.80
2022-09-26T02:19:13.809Z,65.57
2022-09-26T02:22:04.201Z,66.53
2022-09-26T02:24:53.857Z,70.03
2022-09-26T02:27:42.904Z,70.10
2022-09-26T02:30:31.733Z,71.67
2022-09-26T02:33:21.254Z,73.47
2022-09-26T02:36:11.812Z,73.10
2022-09-26T02:39:01.838Z,75.30
2022-09-26T02:42:10.261Z,78.73
2022-09-26T02:45:17.394Z,72.57
2022-09-26T02:48:29.015Z,73.07
2022-09-26T02:51:34.226Z,73.73
2022-09-26T02:54:32.431Z,73.57
2022-09-26T02:57:33.942Z,74.53
2022-09-26T03:00:25.769Z,70.67
2022-09-26T03:03:22.604Z,68.27
2022-09-26T03:06:18.018Z,65.30
2022-09-26T03:09:09.258Z,62.07
2022-09-26T03:12:03.362Z,62.40
2022-09-26T03:14:57.882Z,62.83
2022-09-26T03:17:53.065Z,66.60
2022-09-26T03:20:42.674Z,67.83
2022-09-26T03:23:31.518Z,71.73
2022-09-26T03:26:25.886Z,72.53
2022-09-26T03:29:20.026Z,70.50
2022-09-26T03:32:08.445Z,68.70
2022-09-26T03:34:58.303Z,67.97
2022-09-26T03:37:47.956Z,65.20
2022-09-26T03:40:37.950Z,64.70
2022-09-26T03:43:49.760Z,62.20
2022-09-26T03:46:40.354Z,64.50
2022-09-26T03:49:30.321Z,64.60
2022-09-26T03:52:18.853Z,65.40
2022-09-26T03:55:07.603Z,67.20
2022-09-26T03:57:57.515Z,64.00
2022-09-26T04:00:52.252Z,64.60
2022-09-26T04:03:49.998Z,64.60
2022-09-26T04:06:39.375Z,65.80
2022-09-26T04:09:28.213Z,68.37
2022-09-26T04:12:16.929Z,71.90
2022-09-26T04:15:07.706Z,70.53
2022-09-26T04:17:56.920Z,72.30
2022-09-26T04:20:47.585Z,72.60
2022-09-26T04:23:44.162Z,77.67
2022-09-26T04:26:32.948Z,76.63
2022-09-26T04:29:21.385Z,76.87
2022-09-26T04:32:19.653Z,72.93
2022-09-26T04:35:27.963Z,76.90
2022-09-26T04:38:18.746Z,75.03
2022-09-26T04:41:09.846Z,75.37
2022-09-26T04:43:59.655Z,72.20
2022-09-26T04:46:48.172Z,73.80
2022-09-26T04:49:37.300Z,73.40
2022-09-26T04:52:26.673Z,71.90
2022-09-26T04:55:16.643Z,72.30
2022-09-26T04:58:05.006Z,72.93
2022-09-26T05:00:53.371Z,71.13
2022-09-26T05:03:58.586Z,70.07
2022-09-26T05:06:49.978Z,71.07
2022-09-26T05:09:49.247Z,69.33
2022-09-26T05:12:41.164Z,69.93
2022-09-26T05:15:29.534Z,75.87
2022-09-26T05:18:17.900Z,67.97
2022-09-26T05:21:07.733Z,66.33
2022-09-26T05:24:13.623Z,65.97
2022-09-26T05:27:02.661Z,63.77
2022-09-26T05:29:57.091Z,59.87
2022-09-26T05:32:48.590Z,61.17
2022-09-26T05:35:38.421Z,59.00
2022-09-26T05:38:26.825Z,59.50
2022-09-26T05:41:14.588Z,58.97
2022-09-26T05:44:03.202Z,59.40
2022-09-26T05:46:53.882Z,62.17
2022-09-26T05:49:42.427Z,61.10
2022-09-26T05:52:34.638Z,58.50
2022-09-26T05:55:23.034Z,60.40
2022-09-26T05:58:32.262Z,58.60
2022-09-26T06:01:34.922Z,57.37
2022-09-26T06:04:34.647Z,55.73
2022-09-26T06:07:49.100Z,58.20
2022-09-26T06:11:01.403Z,56.07
2022-09-26T06:13:50.842Z,55.80
2022-09-26T06:16:39.384Z,53.57
2022-09-26T06:19:28.606Z,55.60
2022-09-26T06:22:18.282Z,53.60
2022-09-26T06:25:07.658Z,53.53
2022-09-26T06:27:59.925Z,55.30
2022-09-26T06:30:49.210Z,55.87
2022-09-26T06:33:51.412Z,55.67
2022-09-26T06:36:48.172Z,56.37
2022-09-26T06:39:37.958Z,54.93
2022-09-26T06:42:27.859Z,55.20
2022-09-26T06:45:34.866Z,55.30
2022-09-26T06:48:42.455Z,56.07
2022-09-26T06:51:42.660Z,55.83
2022-09-26T06:54:31.902Z,56.30
2022-09-26T06:57:21.933Z,53.30
2022-09-26T07:00:13.447Z,52.70
2022-09-26T07:03:26.784Z,52.23
2022-09-26T07:06:27.177Z,50.93
2022-09-26T07:09:17.230Z,50.33
2022-09-26T07:12:15.973Z,49.33
2022-09-26T07:15:07.512Z,49.47
2022-09-26T07:17:58.134Z,47.93
2022-09-26T07:21:07.559Z,49.30
2022-09-26T07:24:14.640Z,47.47
2022-09-26T07:27:04.204Z,47.20
2022-09-26T07:29:52.862Z,48.23
2022-09-26T07:32:47.916Z,46.97
2022-09-26T07:36:05.942Z,47.90
2022-09-26T07:38:54.399Z,46.33
2022-09-26T07:41:45.976Z,45.23
2022-09-26T07:48:02.466Z,43.20
2022-09-26T07:51:12.033Z,43.83
2022-09-26T07:54:09.609Z,41.10
2022-09-26T07:56:58.002Z,41.97
2022-09-26T07:59:59.560Z,41.13
2022-09-26T08:03:10.799Z,41.60
2022-09-26T08:06:01.639Z,45.07
2022-09-26T08:08:54.232Z,41.07
2022-09-26T08:12:02.415Z,41.00
2022-09-26T08:15:18.092Z,39.73
2022-09-26T08:18:07.254Z,40.67
2022-09-26T08:20:57.099Z,39.93
2022-09-26T08:23:46.911Z,40.70
2022-09-26T08:27:10.730Z,38.70
2022-09-26T08:30:04.520Z,41.10
2022-09-26T08:33:06.834Z,41.60
2022-09-26T08:36:05.143Z,42.10
2022-09-26T08:39:12.359Z,42.17
2022-09-26T08:42:34.519Z,42.83
2022-09-26T08:46:01.969Z,44.67
2022-09-26T08:49:17.409Z,43.67
2022-09-26T08:52:13.896Z,44.00
2022-09-26T08:55:07.202Z,44.80
2022-09-26T08:58:00.079Z,44.83
2022-09-26T09:00:52.722Z,47.17
2022-09-26T09:03:51.160Z,47.03
2022-09-26T09:06:39.609Z,48.10
2022-09-26T09:09:29.492Z,47.83
2022-09-26T09:12:49.279Z,49.23
2022-09-26T09:16:08.687Z,50.87
2022-09-26T09:19:42.370Z,52.17
2022-09-26T09:23:07.834Z,52.03
2022-09-26T09:29:49.397Z,50.17
2022-09-26T09:32:59.662Z,52.73
2022-09-26T09:36:22.151Z,51.47
2022-09-26T09:39:35.340Z,52.73
2022-09-26T09:42:44.559Z,54.63
2022-09-26T09:45:39.362Z,53.20
2022-09-26T09:48:29.038Z,54.20
2022-09-26T09:51:27.868Z,53.83
2022-09-26T09:54:40.153Z,54.17
2022-09-26T09:57:43.975Z,55.67
2022-09-26T10:00:37.093Z,57.73
2022-09-26T10:03:41.079Z,56.40
2022-09-26T10:06:45.417Z,58.43
2022-09-26T10:09:41.313Z,58.67
2022-09-26T10:12:51.438Z,58.77
2022-09-26T10:16:02.528Z,59.83
2022-09-26T10:19:13.321Z,61.00
2022-09-26T10:22:02.153Z,60.80
2022-09-26T10:24:51.644Z,61.07
2022-09-26T10:27:52.199Z,58.60
2022-09-26T10:30:50.097Z,60.63
2022-09-26T10:33:46.161Z,58.70
2022-09-26T10:36:38.184Z,55.53
2022-09-26T10:39:47.916Z,53.57
2022-09-26T10:42:38.291Z,53.78
2022-09-26T10:45:36.483Z,51.42
2022-09-26T10:49:03.232Z,51.73
2022-09-26T10:52:04.663Z,48.90
2022-09-26T10:54:59.793Z,48.72
2022-09-26T10:57:52.020Z,48.17
2022-09-26T11:00:45.565Z,47.45
2022-09-26T11:03:42.592Z,47.40
2022-09-26T11:06:51.412Z,44.35
2022-09-26T11:09:52.446Z,44.75
2022-09-26T11:13:18.907Z,39.92
2022-09-26T11:16:15.652Z,38.60
2022-09-26T11:19:16.001Z,37.72
2022-09-26T11:22:14.370Z,38.03
2022-09-26T11:25:08.916Z,38.17
2022-09-26T11:28:07.195Z,38.03
2022-09-26T11:31:28.509Z,39.47
2022-09-26T11:34:43.277Z,38.83
2022-09-26T11:37:43.368Z,37.50
2022-09-26T11:40:44.000Z,37.05
2022-09-26T11:43:45.593Z,37.17
2022-09-26T11:46:56.632Z,30.02
2022-09-26T11:50:26.840Z,25.98
2022-09-26T11:53:55.870Z,26.70
2022-09-26T11:56:55.219Z,25.98
2022-09-26T12:00:06.354Z,24.67
2022-09-26T12:03:36.338Z,24.45
2022-09-26T12:06:33.689Z,21.75
2022-09-26T12:09:42.286Z,19.80
2022-09-26T12:12:41.974Z,20.45
2022-09-26T12:15:37.876Z,21.10
2022-09-26T12:18:36.207Z,20.98
2022-09-26T12:22:02.966Z,20.27
2022-09-26T12:25:17.857Z,18.55
2022-09-26T12:28:25.254Z,17.15
2022-09-26T12:31:21.284Z,17.20
2022-09-26T12:34:29.544Z,17.50
2022-09-26T12:37:46.055Z,14.73
2022-09-26T12:40:39.640Z,14.75
2022-09-26T12:43:56.704Z,15.30
2022-09-26T12:47:03.487Z,15.50
2022-09-26T12:50:11.621Z,14.70
2022-09-26T12:53:20.722Z,16.35
2022-09-26T12:56:11.282Z,13.35
2022-09-26T12:59:16.668Z,13.48
2022-09-26T13:02:33.715Z,12.35
2022-09-26T13:05:50.443Z,12.70
2022-09-26T13:08:53.299Z,11.70
2022-09-26T13:11:53.408Z,11.82
2022-09-26T13:15:01.419Z,12.95
2022-09-26T13:17:55.217Z,11.30
2022-09-26T13:20:51.110Z,11.77
2022-09-26T13:23:44.802Z,10.98
2022-09-26T13:26:38.787Z,11.00
2022-09-26T13:29:33.829Z,10.70
2022-09-26T13:32:27.840Z,10.93
2022-09-26T13:35:20.951Z,11.45
2022-09-26T13:38:25.381Z,10.50
2022-09-26T13:41:29.647Z,9.80
2022-09-26T13:44:32.286Z,9.55
2022-09-26T13:47:33.762Z,9.23
2022-09-26T13:50:27.186Z,8.50
2022-09-26T13:53:27.135Z,8.55
2022-09-26T13:56:44.249Z,9.38
2022-09-26T13:59:36.045Z,8.57
2022-09-26T14:02:28.527Z,8.13
2022-09-26T14:05:45.772Z,7.10
2022-09-26T14:08:55.577Z,8.15
2022-09-26T14:11:49.865Z,7.60
2022-09-26T14:14:46.439Z,6.85
2022-09-26T14:18:17.182Z,6.82
2022-09-26T14:21:29.172Z,7.18
2022-09-26T14:24:41.605Z,7.22
2022-09-26T14:27:44.354Z,6.97
2022-09-26T14:30:33.474Z,6.70
2022-09-26T14:33:25.306Z,6.85
2022-09-26T14:36:28.740Z,6.75
2022-09-26T14:39:33.436Z,6.93
2022-09-26T14:42:27.964Z,7.05
2022-09-26T14:45:23.197Z,6.80
2022-09-26T14:48:18.706Z,6.53
2022-09-26T14:51:27.348Z,6.90
2022-09-26T14:54:23.700Z,7.05
2022-09-26T14:57:21.999Z,6.78
2022-09-26T15:00:37.154Z,6.80
2022-09-26T15:03:25.569Z,7.10
2022-09-26T15:06:15.177Z,7.82
2022-09-26T15:09:11.368Z,7.78
2022-09-26T15:12:02.324Z,7.88
2022-09-26T15:14:55.482Z,7.95
2022-09-26T15:17:50.570Z,7.40
2022-09-26T15:20:45.869Z,7.70
2022-09-26T15:23:35.908Z,7.70
2022-09-26T15:26:27.533Z,7.95
2022-09-26T15:29:17.415Z,8.35
2022-09-26T15:32:06.945Z,7.88
2022-09-26T15:34:58.111Z,7.68
2022-09-26T15:37:46.718Z,7.30
2022-09-26T15:40:35.172Z,8.02
2022-09-26T15:43:22.690Z,7.95
2022-09-26T15:46:23.673Z,9.30
2022-09-26T15:49:15.183Z,8.18
2022-09-26T15:52:06.305Z,8.75
2022-09-26T15:54:55.186Z,10.02
2022-09-26T15:57:44.360Z,11.30
2022-09-26T16:00:36.665Z,10.85
2022-09-26T16:03:45.491Z,10.93
2022-09-26T16:06:35.500Z,11.95
2022-09-26T16:09:32.501Z,13.15
2022-09-26T16:12:23.735Z,12.73
2022-09-26T16:15:17.868Z,14.18
2022-09-26T16:18:07.077Z,18.98
2022-09-26T16:21:16.187Z,20.00
2022-09-26T16:24:28.088Z,16.17
2022-09-26T16:27:24.571Z,17.13
2022-09-26T16:30:37.721Z,18.67
2022-09-26T16:33:32.231Z,19.33
2022-09-26T16:36:23.582Z,19.40
2022-09-26T16:39:21.154Z,20.52
2022-09-26T16:42:17.887Z,21.35
2022-09-26T16:45:15.126Z,23.05
2022-09-26T16:48:04.505Z,22.67
2022-09-26T16:51:13.656Z,22.98
2022-09-26T16:54:20.824Z,23.05
2022-09-26T16:57:17.761Z,25.30
2022-09-26T17:00:33.786Z,24.30
2022-09-26T17:03:25.211Z,25.33
2022-09-26T17:06:13.485Z,25.27
2022-09-26T17:09:08.912Z,26.53
2022-09-26T17:12:00.179Z,25.77
2022-09-26T17:14:52.143Z,27.27
2022-09-26T17:17:41.928Z,27.93
2022-09-26T17:20:30.719Z,28.17
2022-09-26T17:23:39.520Z,29.20
2022-09-26T17:26:28.190Z,31.43
2022-09-26T17:29:21.172Z,31.23
2022-09-26T17:32:13.650Z,31.90
2022-09-26T17:35:05.709Z,32.77
2022-09-26T17:37:54.748Z,33.10
2022-09-26T17:40:45.874Z,33.77
2022-09-26T17:43:35.239Z,33.97
2022-09-26T17:46:23.868Z,33.77
2022-09-26T17:49:16.884Z,33.17
2022-09-26T17:52:24.056Z,35.37
2022-09-26T17:55:13.047Z,36.23
2022-09-26T17:58:02.635Z,38.23
2022-09-26T18:00:52.865Z,38.73
2022-09-26T18:03:41.203Z,37.43
2022-09-26T18:06:33.201Z,38.40
2022-09-26T18:09:23.439Z,37.43
2022-09-26T18:12:17.648Z,37.87
2022-09-26T18:15:06.652Z,39.07
2022-09-26T18:17:55.238Z,37.87
2022-09-26T18:20:45.617Z,38.23
2022-09-26T18:23:42.534Z,40.23
2022-09-26T18:26:34.620Z,39.87
2022-09-26T18:29:30.021Z,40.63
2022-09-26T18:32:26.642Z,42.43
2022-09-26T18:35:17.095Z,42.37
2022-09-26T18:38:05.558Z,42.73
2022-09-26T18:40:55.996Z,42.57
2022-09-26T18:43:46.872Z,42.47
2022-09-26T18:46:36.585Z,43.57
2022-09-26T18:49:26.824Z,46.00
2022-09-26T18:52:17.594Z,46.80
2022-09-26T18:55:31.832Z,49.50
2022-09-26T18:58:26.703Z,49.70
2022-09-26T19:01:22.704Z,51.60
2022-09-26T19:04:14.937Z,51.93
2022-09-26T19:07:08.612Z,53.93
2022-09-26T19:09:57.345Z,53.37
2022-09-26T19:12:45.806Z,54.83
2022-09-26T19:15:34.462Z,56.63
2022-09-26T19:18:24.359Z,58.13
2022-09-26T19:21:19.273Z,58.07
2022-09-26T19:24:21.265Z,57.50
2022-09-26T19:27:15.219Z,61.67
2022-09-26T19:30:06.439Z,59.83
2022-09-26T19:32:57.632Z,62.87
2022-09-26T19:35:47.604Z,64.60
2022-09-26T19:38:36.062Z,62.17
2022-09-26T19:41:24.447Z,65.03
2022-09-26T19:44:13.406Z,66.47
2022-09-26T19:47:03.214Z,67.33
2022-09-26T19:49:53.566Z,69.00
2022-09-26T19:52:43.589Z,68.47
2022-09-26T19:55:32.729Z,68.63
2022-09-26T19:58:23.593Z,66.47
2022-09-26T20:01:16.810Z,65.70
2022-09-26T20:04:05.308Z,66.33
2022-09-26T20:06:53.768Z,66.67
2022-09-26T20:09:43.942Z,67.53
2022-09-26T20:12:32.361Z,64.93
2022-09-26T20:15:21.275Z,68.63
2022-09-26T20:18:14.233Z,71.10
2022-09-26T20:21:02.646Z,66.53
2022-09-26T20:23:51.034Z,67.30
2022-09-26T20:26:42.719Z,67.27
2022-09-26T20:29:51.114Z,72.07
2022-09-26T20:32:40.807Z,75.50
2022-09-26T20:35:35.127Z,67.27
2022-09-26T20:38:30.651Z,68.93
2022-09-26T20:41:24.350Z,70.10
2022-09-26T20:44:18.037Z,71.80
2022-09-26T20:47:06.662Z,70.00
2022-09-26T20:49:59.156Z,71.27
2022-09-26T20:52:47.651Z,74.83
2022-09-26T20:55:36.763Z,75.73
2022-09-26T20:58:26.352Z,74.63
2022-09-26T21:01:17.529Z,74.03
2022-09-26T21:04:06.409Z,76.63
2022-09-26T21:06:54.737Z,77.07
2022-09-26T21:09:43.128Z,78.23
2022-09-26T21:12:31.425Z,79.67
2022-09-26T21:15:20.125Z,77.63
2022-09-26T21:18:22.608Z,79.53
2022-09-26T21:21:22.293Z,84.97
2022-09-26T21:24:32.330Z,78.93
2022-09-26T21:27:21.143Z,83.37
2022-09-26T21:30:14.657Z,84.47
2022-09-26T21:33:03.023Z,85.93
2022-09-26T21:35:53.110Z,86.27
2022-09-26T21:38:41.423Z,84.73
2022-09-26T21:41:29.978Z,85.00
2022-09-26T21:44:23.399Z,86.60
2022-09-26T21:47:11.775Z,85.77
2022-09-26T21:50:00.322Z,84.47
2022-09-26T21:52:52.420Z,86.33
2022-09-26T21:55:46.651Z,84.23
2022-09-26T21:58:39.120Z,83.97
2022-09-26T22:01:27.513Z,83.60
2022-09-26T22:04:15.881Z,74.13
2022-09-26T22:07:04.275Z,72.73
2022-09-26T22:09:53.985Z,75.70
2022-09-26T22:12:42.355Z,72.97
2022-09-26T22:15:30.979Z,80.23
2022-09-26T22:18:19.310Z,85.17
2022-09-26T22:21:08.214Z,89.23
2022-09-26T22:23:56.509Z,91.07
2022-09-26T22:26:46.385Z,91.50
2022-09-26T22:29:34.824Z,90.37
2022-09-26T22:32:23.373Z,87.30
2022-09-26T22:35:11.805Z,84.33
2022-09-26T22:38:00.077Z,85.43
2022-09-26T22:40:57.157Z,81.83
2022-09-26T22:43:49.237Z,82.17
2022-09-26T22:46:38.446Z,81.53
2022-09-26T22:49:26.971Z,79.90
2022-09-26T22:52:15.294Z,81.03
2022-09-26T22:55:03.698Z,82.10
2022-09-26T22:57:52.154Z,81.00
2022-09-26T23:00:41.909Z,79.43
2022-09-26T23:03:30.183Z,77.73
2022-09-26T23:06:18.736Z,78.63
2022-09-26T23:09:07.227Z,77.47
2022-09-26T23:11:55.586Z,77.43
2022-09-26T23:14:43.933Z,79.50
2022-09-26T23:17:33.634Z,77.73
2022-09-26T23:20:22.145Z,75.27
2022-09-26T23:23:11.494Z,79.13
2022-09-26T23:25:59.955Z,80.00
2022-09-26T23:28:48.301Z,78.47
2022-09-26T23:31:36.748Z,77.00
2022-09-26T23:34:26.610Z,77.00
2022-09-26T23:37:14.991Z,74.80
2022-09-26T23:40:03.820Z,85.67
2022-09-26T23:42:52.179Z,72.10
2022-09-26T23:45:42.005Z,65.57
2022-09-26T23:48:30.519Z,66.43
2022-09-26T23:51:20.270Z,67.07
2022-09-26T23:54:08.810Z,65.50
2022-09-26T23:56:57.162Z,61.43
2022-09-26T23:59:45.542Z,58.77
